Time;durP1;ratioP1;P1;durP2;ratioP2;P2;SDS_P1;SDS_P2;PMS_P1;PMS_P2;Temp;Humidity;BMP_temperature;BMP_pressure;BME280_temperature;BME280_humidity;BME280_pressure;Samples;Min_cycle;Max_cycle;Signal;HPM_P1;HPM_P2
2023/04/29 00:02:17;;;;;;;27.33;15.25;;;;;;;8.24;nan;100536.88;4919690;29;20074;-71
2023/04/29 00:04:43;;;;;;;25.80;14.70;;;;;;;8.17;nan;100526.41;4917492;29;20032;-71
2023/04/29 00:07:08;;;;;;;25.63;14.68;;;;;;;8.11;nan;100516.72;4919311;29;20034;-70
2023/04/29 00:09:34;;;;;;;24.10;13.60;;;;;;;8.23;nan;100535.25;4915637;29;20119;-70
2023/04/29 00:11:59;;;;;;;25.35;13.68;;;;;;;8.15;nan;100525.00;4916782;29;20071;-72
2023/04/29 00:14:24;;;;;;;22.08;13.30;;;;;;;8.23;nan;100540.50;4919116;29;20409;-71
2023/04/29 00:16:50;;;;;;;24.25;13.30;;;;;;;8.14;nan;100532.06;4918707;29;20036;-71
2023/04/29 00:19:17;;;;;;;24.38;13.93;;;;;;;8.23;nan;100538.69;4916022;29;20016;-71
2023/04/29 00:21:42;;;;;;;21.75;13.68;;;;;;;8.07;nan;100518.97;4918931;29;20031;-72
2023/04/29 00:24:08;;;;;;;22.60;12.93;;;;;;;8.13;nan;100522.56;4918207;29;20035;-72
2023/04/29 00:26:34;;;;;;;23.30;13.68;;;;;;;8.14;nan;100526.81;4920559;29;20064;-71
2023/04/29 00:28:59;;;;;;;28.77;13.95;;;;;;;8.13;nan;100519.94;4925526;28;20051;-68
2023/04/29 00:31:25;;;;;;;21.98;13.63;;;;;;;8.17;nan;100521.16;4937274;28;20514;-68
2023/04/29 00:33:50;;;;;;;25.35;12.93;;;;;;;8.16;nan;100516.09;4936475;28;20072;-69
2023/04/29 00:36:16;;;;;;;25.83;13.35;;;;;;;8.16;nan;100519.53;4938272;28;20042;-70
2023/04/29 00:38:42;;;;;;;21.85;13.15;;;;;;;8.09;nan;100508.25;4938559;28;20039;-70
2023/04/29 00:41:07;;;;;;;23.88;13.10;;;;;;;8.07;nan;100505.84;4944567;28;20038;-69
2023/04/29 00:43:33;;;;;;;24.38;13.77;;;;;;;8.07;nan;100512.91;4943082;28;20616;-70
2023/04/29 00:45:58;;;;;;;25.60;13.48;;;;;;;8.07;nan;100520.78;4942869;28;20520;-70
2023/04/29 00:48:24;;;;;;;25.30;13.40;;;;;;;8.07;nan;100520.78;4939286;28;20063;-69
2023/04/29 00:50:50;;;;;;;22.42;13.10;;;;;;;8.02;nan;100512.69;4940001;28;20114;-70
2023/04/29 00:53:16;;;;;;;21.02;12.70;;;;;;;8.06;nan;100519.16;4940004;28;20037;-69
2023/04/29 00:55:43;;;;;;;21.38;12.60;;;;;;;8.00;nan;100517.38;4944440;28;20036;-69
2023/04/29 00:58:09;;;;;;;20.05;11.73;;;;;;;7.94;nan;100512.94;4938132;28;20035;-69
2023/04/29 01:00:35;;;;;;;20.63;12.02;;;;;;;7.95;nan;100523.22;4922693;28;20032;-68
2023/04/29 01:03:01;;;;;;;19.13;12.18;;;;;;;7.85;nan;100502.66;4941246;28;20078;-69
2023/04/29 01:05:26;;;;;;;19.70;12.10;;;;;;;7.89;nan;100514.34;4940017;28;20024;-69
2023/04/29 01:08:01;;;;;;;23.38;12.00;;;;;;;7.92;nan;100518.38;4938678;28;20034;-68
2023/04/29 01:10:31;;;;;;;19.13;11.93;;;;;;;7.86;nan;100514.75;4933304;28;20107;-69
2023/04/29 01:13:06;;;;;;;23.63;13.13;;;;;;;7.89;nan;100519.59;4941428;28;20118;-68
2023/04/29 01:15:53;;;;;;;22.02;12.48;;;;;;;7.90;nan;100533.50;4940792;28;20109;-67
2023/04/29 01:18:26;;;;;;;22.85;12.57;;;;;;;7.80;nan;100523.41;4942229;28;20036;-69
2023/04/29 01:20:52;;;;;;;19.27;12.27;;;;;;;7.84;nan;100529.06;4940869;28;20106;-70
2023/04/29 01:23:18;;;;;;;24.35;13.10;;;;;;;7.81;nan;100525.06;4941571;28;20109;-70
2023/04/29 01:25:44;;;;;;;19.15;12.85;;;;;;;7.75;nan;100507.50;4937216;28;20055;-67
2023/04/29 01:28:34;;;;;;;21.90;13.18;;;;;;;7.84;nan;100518.59;4942262;28;20027;-69
2023/04/29 01:31:08;;;;;;;23.27;12.60;;;;;;;7.78;nan;100509.75;4934282;28;20039;-69
2023/04/29 01:33:58;;;;;;;21.30;13.07;;;;;;;7.80;nan;100515.56;4941595;28;20129;-69
2023/04/29 01:36:26;;;;;;;21.80;13.02;;;;;;;7.78;nan;100512.34;4939077;28;20035;-69
2023/04/29 01:39:10;;;;;;;21.60;13.20;;;;;;;7.79;nan;100518.41;4938360;28;20527;-69
2023/04/29 01:41:43;;;;;;;30.30;14.23;;;;;;;7.76;nan;100517.00;4936068;28;20044;-69
2023/04/29 01:44:17;;;;;;;24.75;14.15;;;;;;;7.75;nan;100517.19;4925121;28;20074;-68
2023/04/29 01:46:51;;;;;;;26.92;14.60;;;;;;;7.35;nan;100451.69;4939337;28;20082;-69
2023/04/29 01:49:21;;;;;;;22.55;14.02;;;;;;;7.61;nan;100488.38;4940698;28;20027;-69
2023/04/29 01:51:46;;;;;;;;;;;;;;;7.69;nan;100507.53;4940746;28;20070;-69
2023/04/29 01:54:11;;;;;;;25.67;14.70;;;;;;;7.59;nan;100493.00;4938168;28;20746;-69
2023/04/29 01:56:37;;;;;;;23.77;14.55;;;;;;;7.63;nan;100498.66;4939461;28;20439;-68
2023/04/29 01:59:02;;;;;;;24.55;14.75;;;;;;;7.59;nan;100492.19;4937093;28;20023;-68
2023/04/29 02:01:28;;;;;;;24.80;14.95;;;;;;;7.51;nan;100482.72;4957080;28;20047;-68
2023/04/29 02:03:53;;;;;;;26.48;14.68;;;;;;;7.52;nan;100479.13;4953736;28;20027;-68
2023/04/29 02:06:19;;;;;;;29.10;14.90;;;;;;;7.51;nan;100474.88;4950633;28;20027;-68
2023/04/29 02:08:44;;;;;;;22.05;14.52;;;;;;;7.53;nan;100491.19;4944668;29;20168;-69
2023/04/29 02:11:09;;;;;;;25.40;14.73;;;;;;;7.53;nan;100488.56;4938982;29;20091;-69
2023/04/29 02:13:35;;;;;;;27.63;15.20;;;;;;;7.46;nan;100483.31;4939734;28;20049;-69
2023/04/29 02:16:08;;;;;;;26.55;14.93;;;;;;;7.56;nan;100503.09;4940194;28;20427;-68
2023/04/29 02:18:33;;;;;;;22.90;14.35;;;;;;;7.52;nan;100500.06;4942581;28;20042;-68
2023/04/29 02:21:00;;;;;;;23.83;14.35;;;;;;;7.51;nan;100501.06;4938590;28;20028;-68
2023/04/29 02:23:26;;;;;;;22.73;13.10;;;;;;;7.50;nan;100491.59;4939914;28;20541;-69
2023/04/29 02:25:51;;;;;;;22.17;13.45;;;;;;;7.51;nan;100489.78;4936113;28;20031;-70
2023/04/29 02:28:17;;;;;;;24.85;14.13;;;;;;;7.45;nan;100488.78;4939786;28;20397;-69
2023/04/29 02:30:42;;;;;;;22.95;13.02;;;;;;;7.49;nan;100500.47;4919747;29;20090;-70
2023/04/29 02:33:07;;;;;;;22.60;12.88;;;;;;;7.44;nan;100495.03;4938758;28;20456;-70
2023/04/29 02:35:33;;;;;;;22.50;12.35;;;;;;;7.46;nan;100504.28;4939573;28;20526;-72
2023/04/29 02:37:58;;;;;;;21.33;12.77;;;;;;;7.36;nan;100493.41;4941786;28;20034;-73
2023/04/29 02:40:25;;;;;;;20.90;12.85;;;;;;;7.39;nan;100502.69;4907238;29;20131;-72
2023/04/29 02:42:50;;;;;;;22.77;12.68;;;;;;;7.37;nan;100502.06;4941750;28;20035;-73
2023/04/29 02:45:16;;;;;;;22.60;12.32;;;;;;;7.37;nan;100502.06;4938506;28;20027;-73
2023/04/29 02:47:41;;;;;;;19.08;12.32;;;;;;;7.34;nan;100494.63;4939832;28;20890;-73
2023/04/29 02:50:07;;;;;;;19.30;12.25;;;;;;;7.41;nan;100503.28;4939547;28;20137;-73
2023/04/29 02:52:32;;;;;;;19.55;11.90;;;;;;;7.38;nan;100509.75;4939764;28;20038;-73
2023/04/29 02:54:58;;;;;;;20.73;11.90;;;;;;;7.34;nan;100495.41;4941766;28;20475;-72
2023/04/29 02:57:23;;;;;;;20.88;11.73;;;;;;;7.40;nan;100509.56;4937777;28;20159;-72
2023/04/29 02:59:48;;;;;;;19.63;12.18;;;;;;;7.38;nan;100506.31;4932747;28;20055;-72
2023/04/29 03:02:14;;;;;;;20.60;12.10;;;;;;;7.28;nan;100493.63;4938249;28;20027;-71
2023/04/29 03:04:39;;;;;;;22.55;12.23;;;;;;;7.36;nan;100497.84;4941058;28;20169;-71
2023/04/29 03:07:06;;;;;;;19.02;12.50;;;;;;;7.33;nan;100499.06;4939682;28;20159;-72
2023/04/29 03:09:32;;;;;;;21.95;12.85;;;;;;;7.32;nan;100497.44;4935685;28;20043;-72
2023/04/29 03:11:57;;;;;;;20.17;11.23;;;;;;;7.27;nan;100492.00;4938895;28;20074;-72
2023/04/29 03:14:23;;;;;;;20.20;12.00;;;;;;;7.30;nan;100499.44;4938030;28;20379;-73
2023/04/29 03:16:48;;;;;;;20.30;12.43;;;;;;;7.26;nan;100492.22;4920973;28;20501;-72
2023/04/29 03:19:14;;;;;;;19.42;12.48;;;;;;;7.27;nan;100489.38;4935464;28;20054;-71
2023/04/29 03:21:39;;;;;;;16.70;10.27;;;;;;;7.23;nan;100485.53;4939212;28;20034;-70
2023/04/29 03:24:05;;;;;;;20.52;11.98;;;;;;;7.15;nan;100485.75;4938324;28;20038;-69
2023/04/29 03:26:31;;;;;;;22.30;12.00;;;;;;;7.12;nan;100486.16;4939211;28;20044;-70
2023/04/29 03:28:57;;;;;;;19.17;11.43;;;;;;;7.06;nan;100485.13;4934712;28;20116;-70
2023/04/29 03:31:24;;;;;;;19.45;11.57;;;;;;;6.81;nan;100449.03;4936279;28;20406;-68
2023/04/29 03:33:49;;;;;;;21.05;11.85;;;;;;;7.03;nan;100481.09;4939114;28;20034;-69
2023/04/29 03:36:15;;;;;;;19.77;12.68;;;;;;;7.06;nan;100484.31;4924763;28;20036;-70
2023/04/29 03:38:40;;;;;;;20.85;11.80;;;;;;;6.99;nan;100473.81;4935752;28;20066;-70
2023/04/29 03:41:08;;;;;;;19.48;12.00;;;;;;;7.07;nan;100480.72;4932382;28;20784;-69
2023/04/29 03:43:33;;;;;;;20.05;12.07;;;;;;;7.09;nan;100476.88;4940630;28;20031;-69
2023/04/29 03:45:59;;;;;;;19.60;11.45;;;;;;;7.11;nan;100485.34;4939553;28;20046;-70
2023/04/29 03:48:24;;;;;;;20.08;11.05;;;;;;;7.10;nan;100483.72;4937997;28;20085;-70
2023/04/29 03:50:50;;;;;;;18.40;11.60;;;;;;;7.12;nan;100484.31;4927382;28;20062;-69
2023/04/29 03:53:16;;;;;;;20.52;10.90;;;;;;;7.09;nan;100486.53;4938311;28;20488;-70
2023/04/29 03:55:41;;;;;;;17.35;10.98;;;;;;;7.08;nan;100484.94;4941249;28;20055;-71
2023/04/29 03:58:07;;;;;;;18.58;10.98;;;;;;;7.00;nan;100478.88;4936219;28;20062;-69
2023/04/29 04:00:32;;;;;;;20.20;10.88;;;;;;;7.11;nan;100495.81;4937529;28;20035;-70
2023/04/29 04:02:58;;;;;;;21.35;11.50;;;;;;;7.16;nan;100489.97;4937506;28;20033;-70
2023/04/29 04:05:24;;;;;;;23.75;11.52;;;;;;;6.98;nan;100464.38;5086156;23;20052;-71
2023/04/29 04:07:53;;;;;;;17.10;11.23;;;;;;;7.27;nan;100505.09;4920708;29;20044;-67
2023/04/29 04:10:19;;;;;;;18.27;11.07;;;;;;;7.30;nan;100498.63;4918619;29;20062;-68
2023/04/29 04:12:46;;;;;;;22.10;11.32;;;;;;;7.33;nan;100498.25;4923601;29;20076;-67
2023/04/29 04:15:11;;;;;;;19.15;10.70;;;;;;;7.37;nan;100497.63;4923393;29;20198;-68
2023/04/29 04:17:37;;;;;;;19.63;11.27;;;;;;;7.36;nan;100493.41;4930385;29;20159;-68
2023/04/29 04:20:03;;;;;;;18.08;10.68;;;;;;;7.30;nan;100488.16;4927131;29;20374;-69
2023/04/29 04:22:28;;;;;;;19.77;10.80;;;;;;;7.42;nan;100504.88;4927641;29;20546;-68
2023/04/29 04:24:54;;;;;;;17.50;10.48;;;;;;;7.34;nan;100490.19;4922308;29;20020;-68
2023/04/29 04:27:19;;;;;;;19.10;10.95;;;;;;;;;;4921555;29;20083;-68
2023/04/29 04:29:45;;;;;;;22.02;11.15;;;;;;;;;;4921883;29;20032;-69
2023/04/29 04:32:10;;;;;;;18.87;11.17;;;;;;;;;;4924142;29;20034;-69
2023/04/29 04:34:38;;;;;;;20.83;10.73;;;;;;;;;;4922688;29;20028;-68
2023/04/29 04:37:03;;;;;;;17.75;10.30;;;;;;;;;;4923893;29;20095;-69
2023/04/29 04:39:28;;;;;;;16.50;10.50;;;;;;;;;;4926415;29;20047;-68
2023/04/29 04:41:53;;;;;;;16.42;9.30;;;;;;;;;;4923074;29;20282;-69
2023/04/29 04:44:19;;;;;;;17.88;9.60;;;;;;;;;;4933598;29;20459;-70
2023/04/29 04:46:45;;;;;;;16.77;10.05;;;;;;;;;;4924241;29;20526;-68
2023/04/29 04:49:10;;;;;;;16.73;10.15;;;;;;;;;;4926069;29;20024;-69
2023/04/29 04:51:35;;;;;;;20.95;10.48;;;;;;;;;;4921687;29;20031;-69
2023/04/29 04:54:00;;;;;;;17.07;9.93;;;;;;;;;;4927292;29;20031;-69
2023/04/29 04:56:26;;;;;;;15.60;9.27;;;;;;;;;;4920587;29;20642;-70
2023/04/29 04:58:51;;;;;;;16.13;9.82;;;;;;;;;;4924685;29;20295;-67
2023/04/29 05:01:16;;;;;;;17.57;9.63;;;;;;;7.71;nan;100502.88;4919770;29;20079;-68
2023/04/29 05:03:42;;;;;;;19.02;9.27;;;;;;;;;;4922341;29;20036;-69
2023/04/29 05:06:07;;;;;;;19.63;9.90;;;;;;;;;;4920513;29;20052;-67
2023/04/29 05:08:32;;;;;;;16.37;9.77;;;;;;;;;;4922681;29;20300;-69
2023/04/29 05:10:57;;;;;;;20.33;9.37;;;;;;;;;;4921207;29;20039;-68
2023/04/29 05:13:24;;;;;;;14.65;7.53;;;;;;;;;;4922898;29;20377;-68
2023/04/29 05:15:49;;;;;;;14.07;8.70;;;;;;;;;;4929531;29;20036;-69
2023/04/29 05:18:15;;;;;;;13.82;8.35;;;;;;;;;;4925297;29;20624;-69
2023/04/29 05:20:40;;;;;;;16.43;8.43;;;;;;;;;;4923923;29;20119;-69
2023/04/29 05:23:05;;;;;;;14.45;8.93;;;;;;;;;;4940037;29;20289;-68
2023/04/29 05:25:31;;;;;;;14.55;8.55;;;;;;;;;;4943670;29;20027;-69
2023/04/29 05:27:56;;;;;;;11.32;8.57;;;;;;;;;;4941678;29;20047;-68
2023/04/29 05:30:21;;;;;;;14.60;8.00;;;;;;;;;;4942786;28;20032;-67
2023/04/29 05:32:50;;;;;;;12.50;8.48;;;;;;;;;;4940559;29;20637;-69
2023/04/29 05:35:15;;;;;;;13.25;8.02;;;;;;;;;;4948907;28;20024;-70
2023/04/29 05:37:40;;;;;;;12.35;7.78;;;;;;;;;;4929105;29;20475;-69
2023/04/29 05:40:06;;;;;;;14.80;7.67;;;;;;;;;;4929365;29;20086;-67
2023/04/29 05:42:32;;;;;;;14.70;7.88;;;;;;;;;;4923303;29;20294;-70
2023/04/29 05:44:57;;;;;;;12.87;7.70;;;;;;;;;;4927591;29;20453;-70
2023/04/29 05:47:22;;;;;;;12.77;6.90;;;;;;;;;;4928628;29;20270;-69
2023/04/29 05:49:48;;;;;;;15.57;7.60;;;;;;;;;;4923712;29;20337;-69
2023/04/29 05:52:13;;;;;;;17.75;7.60;;;;;;;;;;4922462;29;20304;-68
2023/04/29 05:54:38;;;;;;;12.15;7.13;;;;;;;;;;4923206;29;20035;-69
2023/04/29 05:57:04;;;;;;;11.83;7.30;;;;;;;;;;4923389;29;20040;-69
2023/04/29 05:59:32;;;;;;;15.57;7.47;;;;;;;;;;4920897;29;20043;-68
2023/04/29 06:01:58;;;;;;;13.50;7.88;;;;;;;;;;4923454;29;20036;-68
2023/04/29 06:04:24;;;;;;;15.93;7.65;;;;;;;;;;4921217;29;20044;-68
2023/04/29 06:06:49;;;;;;;15.18;7.25;;;;;;;;;;4922699;29;20059;-68
2023/04/29 06:09:15;;;;;;;13.05;7.30;;;;;;;;;;4917261;29;20035;-70
2023/04/29 06:11:40;;;;;;;11.95;7.00;;;;;;;;;;4925082;29;20051;-70
2023/04/29 06:14:06;;;;;;;12.77;7.27;;;;;;;;;;4918821;29;21209;-70
2023/04/29 06:16:32;;;;;;;12.30;7.60;;;;;;;;;;4923868;29;20282;-72
2023/04/29 06:18:57;;;;;;;12.38;7.57;;;;;;;;;;4921437;29;20046;-72
2023/04/29 06:21:22;;;;;;;14.77;7.35;;;;;;;;;;4923944;29;20391;-73
2023/04/29 06:23:47;;;;;;;15.73;7.23;;;;;;;;;;4920199;29;20578;-73
2023/04/29 06:26:13;;;;;;;11.43;7.60;;;;;;;;;;4919022;29;20285;-70
2023/04/29 06:28:39;;;;;;;15.40;8.15;;;;;;;;;;4922017;29;20286;-70
2023/04/29 06:31:04;;;;;;;14.77;8.15;;;;;;;;;;4921610;29;20523;-70
2023/04/29 06:33:30;;;;;;;14.25;7.93;;;;;;;;;;4920232;29;20170;-71
2023/04/29 06:35:55;;;;;;;15.32;7.88;;;;;;;;;;4936722;28;20040;-70
2023/04/29 06:38:20;;;;;;;14.95;7.43;;;;;;;;;;4920063;29;20035;-70
2023/04/29 06:40:45;;;;;;;15.83;7.70;;;;;;;;;;4918507;29;20032;-70
2023/04/29 06:43:11;;;;;;;11.63;6.87;;;;;;;;;;4921053;29;20782;-70
2023/04/29 06:45:36;;;;;;;12.20;7.03;;;;;;;;;;4918735;29;20067;-70
2023/04/29 06:48:02;;;;;;;13.73;7.90;;;;;;;;;;4919448;29;20031;-70
2023/04/29 06:50:27;;;;;;;18.83;10.90;;;;;;;;;;4921812;29;21114;-70
2023/04/29 06:52:53;;;;;;;16.90;8.10;;;;;;;;;;4923122;29;20123;-70
2023/04/29 06:55:18;;;;;;;12.82;7.35;;;;;;;9.88;nan;100498.50;4922855;29;20398;-71
2023/04/29 06:57:46;;;;;;;14.68;7.85;;;;;;;;;;4921648;29;20119;-70
2023/04/29 07:00:12;;;;;;;10.27;6.85;;;;;;;;;;4917694;29;20024;-74
2023/04/29 07:02:38;;;;;;;14.52;7.82;;;;;;;;;;4920578;29;20032;-74
2023/04/29 07:05:04;;;;;;;11.75;7.63;;;;;;;;;;4921788;29;20047;-73
2023/04/29 07:07:29;;;;;;;11.32;7.15;;;;;;;;;;4920288;29;20040;-73
2023/04/29 07:09:55;;;;;;;12.73;7.27;;;;;;;;;;4918943;29;20604;-73
2023/04/29 07:12:20;;;;;;;10.60;6.50;;;;;;;;;;4921219;29;20293;-73
2023/04/29 07:14:46;;;;;;;10.88;6.95;;;;;;;;;;4923094;29;20034;-73
2023/04/29 07:17:11;;;;;;;17.60;7.35;;;;;;;;;;4922695;29;20028;-73
2023/04/29 07:19:36;;;;;;;10.47;6.70;;;;;;;;;;4919272;29;20025;-73
2023/04/29 07:22:02;;;;;;;10.80;6.63;;;;;;;;;;4918321;29;20074;-73
2023/04/29 07:24:28;;;;;;;11.27;6.10;;;;;;;;;;4920598;29;20514;-73
2023/04/29 07:26:53;;;;;;;11.25;6.18;;;;;;;;;;4920796;29;20028;-73
2023/04/29 07:29:18;;;;;;;14.53;6.57;;;;;;;;;;4919964;29;20455;-72
2023/04/29 07:31:44;;;;;;;11.10;6.90;;;;;;;;;;4920465;29;20286;-75
2023/04/29 07:34:09;;;;;;;15.45;6.95;;;;;;;;;;4921403;29;20036;-75
2023/04/29 07:36:34;;;;;;;11.63;6.63;;;;;;;;;;4920622;29;20580;-74
2023/04/29 07:38:59;;;;;;;12.00;6.30;;;;;;;;;;4922030;29;20282;-73
2023/04/29 07:41:25;;;;;;;11.50;7.13;;;;;;;;;;4920091;29;20111;-73
2023/04/29 07:43:50;;;;;;;15.25;7.03;;;;;;;;;;4922007;29;20142;-73
2023/04/29 07:46:17;;;;;;;10.40;5.83;;;;;;;;;;4922024;29;20402;-73
2023/04/29 07:48:42;;;;;;;15.63;5.90;;;;;;;;;;4925205;29;20283;-74
2023/04/29 07:51:11;;;;;;;11.43;5.70;;;;;;;;;;4930389;29;20035;-73
2023/04/29 07:53:37;;;;;;;11.27;6.03;;;;;;;;;;4922929;29;20450;-74
2023/04/29 07:56:06;;;;;;;43.07;12.57;;;;;;;;;;4922656;29;20020;-73
2023/04/29 07:58:31;;;;;;;;;;;;;;;;;;4923096;29;20734;-73
2023/04/29 08:00:56;;;;;;;10.73;6.32;;;;;;;;;;4923900;29;20562;-72
2023/04/29 08:03:21;;;;;;;13.27;6.47;;;;;;;;;;4925538;29;20027;-74
2023/04/29 08:05:47;;;;;;;13.53;5.67;;;;;;;;;;4924301;29;20297;-74
2023/04/29 08:08:12;;;;;;;19.40;8.02;;;;;;;;;;4925794;29;20079;-74
2023/04/29 08:10:42;;;;;;;23.58;11.30;;;;;;;;;;4923474;29;20028;-70
2023/04/29 08:13:08;;;;;;;12.82;6.30;;;;;;;;;;4922055;29;20077;-71
2023/04/29 08:15:33;;;;;;;9.98;5.95;;;;;;;;;;4922392;29;20039;-70
2023/04/29 08:17:58;;;;;;;10.52;6.82;;;;;;;;;;4943872;29;20020;-70
2023/04/29 08:20:23;;;;;;;30.53;8.83;;;;;;;;;;4939847;29;20032;-70
2023/04/29 08:22:49;;;;;;;28.80;9.67;;;;;;;;;;4941496;29;20313;-70
2023/04/29 08:25:14;;;;;;;54.33;13.15;;;;;;;;;;4933221;29;20027;-69
2023/04/29 08:27:42;;;;;;;116.28;23.05;;;;;;;;;;4944725;29;20048;-68
2023/04/29 08:30:07;;;;;;;22.38;8.18;;;;;;;;;;4930672;29;20510;-69
2023/04/29 08:32:34;;;;;;;45.72;13.00;;;;;;;;;;4924545;29;20040;-70
2023/04/29 08:34:59;;;;;;;22.15;7.88;;;;;;;;;;4928411;29;20300;-70
2023/04/29 08:37:24;;;;;;;18.23;6.23;;;;;;;;;;4924531;29;20039;-70
2023/04/29 08:39:49;;;;;;;16.17;6.23;;;;;;;;;;4927803;29;20764;-69
2023/04/29 08:42:16;;;;;;;9.37;5.43;;;;;;;;;;4927312;29;20275;-69
2023/04/29 08:44:41;;;;;;;7.70;5.15;;;;;;;;;;4925565;29;20078;-70
2023/04/29 08:47:07;;;;;;;9.57;5.05;;;;;;;;;;4925394;29;20452;-69
2023/04/29 08:49:32;;;;;;;8.80;5.28;;;;;;;;;;4923728;29;21172;-70
2023/04/29 08:51:58;;;;;;;23.77;7.70;;;;;;;;;;4924926;29;20127;-70
2023/04/29 08:54:23;;;;;;;9.02;5.00;;;;;;;;;;4925822;29;20759;-71
2023/04/29 08:56:50;;;;;;;9.10;5.70;;;;;;;;;;4924564;29;20186;-71
2023/04/29 08:59:16;;;;;;;9.95;4.65;;;;;;;;;;4924275;29;20039;-70
2023/04/29 09:01:42;;;;;;;8.80;5.30;;;;;;;;;;4922549;29;20034;-70
2023/04/29 09:04:07;;;;;;;10.43;5.20;;;;;;;;;;4924961;29;20031;-69
2023/04/29 09:06:33;;;;;;;9.67;5.33;;;;;;;;;;4926437;29;20039;-70
2023/04/29 09:08:58;;;;;;;7.47;4.50;;;;;;;;;;4922728;29;20039;-71
2023/04/29 09:11:24;;;;;;;8.15;4.20;;;;;;;;;;4924096;29;20095;-70
2023/04/29 09:13:49;;;;;;;8.43;4.18;;;;;;;;;;4923885;29;20039;-71
2023/04/29 09:16:14;;;;;;;7.15;3.92;;;;;;;;;;4923305;29;20032;-70
2023/04/29 09:18:42;;;;;;;7.60;4.35;;;;;;;;;;4922676;29;20027;-71
2023/04/29 09:21:11;;;;;;;6.85;4.72;;;;;;;;;;4924441;29;20019;-70
2023/04/29 09:23:37;;;;;;;7.95;4.03;;;;;;;;;;4922634;29;20035;-70
2023/04/29 09:26:02;;;;;;;6.90;4.40;;;;;;;;;;4921175;29;20035;-70
2023/04/29 09:28:28;;;;;;;7.63;4.38;;;;;;;;;;4922362;29;20031;-70
2023/04/29 09:30:53;;;;;;;5.97;3.50;;;;;;;;;;4922853;29;20035;-70
2023/04/29 09:33:19;;;;;;;5.27;3.50;;;;;;;;;;4935156;28;20051;-70
2023/04/29 09:35:45;;;;;;;7.57;4.03;;;;;;;;;;4922703;29;20028;-71
2023/04/29 09:38:11;;;;;;;9.07;3.72;;;;;;;;;;4922906;29;20023;-71
2023/04/29 09:40:36;;;;;;;6.83;3.23;;;;;;;;;;4920307;29;20020;-71
2023/04/29 09:43:02;;;;;;;134.35;25.35;;;;;;;;;;4921896;29;20051;-71
2023/04/29 09:45:32;;;;;;;31.38;8.32;;;;;;;;;;4922616;29;20096;-72
2023/04/29 09:48:01;;;;;;;17.63;5.65;;;;;;;;;;4924903;29;20039;-71
2023/04/29 09:50:27;;;;;;;11.52;4.50;;;;;;;;;;4924505;28;20070;-70
2023/04/29 09:52:52;;;;;;;16.58;5.57;;;;;;;;;;4920903;29;20134;-70
2023/04/29 09:55:18;;;;;;;8.73;3.80;;;;;;;;;;4924387;29;20027;-71
2023/04/29 09:57:44;;;;;;;6.27;3.70;;;;;;;;;;4923242;29;20041;-70
2023/04/29 10:00:10;;;;;;;8.13;3.97;;;;;;;;;;4926955;29;20701;-71
2023/04/29 10:02:39;;;;;;;5.93;3.22;;;;;;;;;;4918499;29;20035;-71
2023/04/29 10:05:04;;;;;;;5.30;3.10;;;;;;;;;;4922276;29;20036;-71
2023/04/29 10:07:30;;;;;;;5.88;3.10;;;;;;;;;;4919030;29;20043;-71
2023/04/29 10:09:55;;;;;;;5.18;3.13;;;;;;;;;;4927425;29;21078;-71
2023/04/29 10:12:21;;;;;;;8.48;3.83;;;;;;;;;;4922829;29;20035;-71
2023/04/29 10:14:53;;;;;;;7.95;3.38;;;;;;;;;;4922195;29;20039;-71
2023/04/29 10:17:45;;;;;;;7.85;3.67;;;;;;;;;;4937934;28;20031;-71
2023/04/29 10:20:13;;;;;;;7.35;3.60;;;;;;;;;;4917242;29;20475;-70
2023/04/29 10:22:41;;;;;;;7.03;3.40;;;;;;;;;;4921301;29;20409;-71
2023/04/29 10:25:08;;;;;;;5.95;3.72;;;;;;;;;;4924454;29;20759;-72
2023/04/29 10:27:36;;;;;;;8.25;4.25;;;;;;;;;;4920837;29;20040;-71
2023/04/29 10:30:01;;;;;;;5.50;3.28;;;;;;;;;;4922989;29;20082;-71
2023/04/29 10:32:27;;;;;;;8.63;3.90;;;;;;;;;;4924629;29;20031;-70
2023/04/29 10:34:54;;;;;;;6.18;3.50;;;;;;;;;;4925684;29;20282;-73
2023/04/29 10:37:20;;;;;;;7.18;3.70;;;;;;;;;;4938271;28;20059;-73
2023/04/29 10:39:51;;;;;;;5.28;3.45;;;;;;;;;;4926738;29;20111;-72
2023/04/29 10:42:40;;;;;;;6.05;3.35;;;;;;;;;;4920078;29;20027;-73
2023/04/29 10:45:25;;;;;;;7.70;3.78;;;;;;;;;;4921792;29;20048;-73
2023/04/29 10:48:09;;;;;;;6.65;3.50;;;;;;;;;;4920970;29;20032;-75
2023/04/29 10:50:34;;;;;;;6.28;3.75;;;;;;;;;;4917964;28;20028;-72
2023/04/29 10:53:03;;;;;;;9.37;4.10;;;;;;;;;;4918931;29;20059;-73
2023/04/29 10:55:29;;;;;;;6.00;3.90;;;;;;;;;;4926939;28;20071;-72
2023/04/29 10:57:55;;;;;;;5.70;3.30;;;;;;;;;;4923755;29;20040;-71
2023/04/29 11:00:27;;;;;;;5.97;3.60;;;;;;;;;;4921090;29;20450;-72
2023/04/29 11:02:52;;;;;;;5.78;3.40;;;;;;;;;;4920913;29;20032;-71
2023/04/29 11:05:28;;;;;;;6.20;3.10;;;;;;;;;;4926019;29;20046;-72
2023/04/29 11:08:07;;;;;;;5.45;3.22;;;;;;;;;;4919057;29;20032;-71
2023/04/29 11:10:37;;;;;;;5.57;3.45;;;;;;;;;;4920312;29;20024;-71
2023/04/29 11:13:21;;;;;;;6.65;3.50;;;;;;;;;;4921078;29;20044;-71
2023/04/29 11:15:47;;;;;;;7.20;3.67;;;;;;;;;;4921316;28;20040;-71
2023/04/29 11:18:12;;;;;;;6.85;3.38;;;;;;;;;;4922355;29;20478;-72
2023/04/29 11:20:57;;;;;;;5.93;3.50;;;;;;;;;;4923974;29;20036;-71
2023/04/29 11:23:25;;;;;;;9.43;4.20;;;;;;;;;;4935642;29;20028;-69
2023/04/29 11:25:50;;;;;;;6.83;3.90;;;;;;;;;;4941341;29;20028;-70
2023/04/29 11:28:17;;;;;;;5.97;3.47;;;;;;;;;;4947433;29;20169;-69
2023/04/29 11:30:44;;;;;;;7.90;4.03;;;;;;;;;;4944945;29;20290;-71
2023/04/29 11:33:09;;;;;;;6.95;3.63;;;;;;;;;;4942493;29;20028;-74
2023/04/29 11:35:38;;;;;;;4.30;3.37;;;;;;;;;;4942789;29;20084;-73
2023/04/29 11:38:03;;;;;;;5.47;3.80;;;;;;;;;;4927444;28;20115;-72
2023/04/29 11:40:31;;;;;;;4.75;3.30;;;;;;;;;;4929175;29;20127;-72
2023/04/29 11:42:56;;;;;;;7.03;3.80;;;;;;;;;;4924212;29;20111;-73
2023/04/29 11:45:21;;;;;;;7.43;3.33;;;;;;;;;;4928947;29;20115;-73
2023/04/29 11:47:47;;;;;;;8.60;3.93;;;;;;;;;;4929970;29;20087;-73
2023/04/29 11:50:15;;;;;;;6.15;4.05;;;;;;;;;;4930419;29;20448;-73
2023/04/29 11:52:40;;;;;;;4.88;3.30;;;;;;;;;;4927958;29;20119;-72
2023/04/29 11:55:09;;;;;;;5.53;3.65;;;;;;;;;;4923269;28;20107;-71
2023/04/29 11:57:35;;;;;;;5.13;3.33;;;;;;;;;;4920492;29;20028;-71
2023/04/29 12:00:00;;;;;;;7.22;3.50;;;;;;;;;;4937554;28;20290;-71
2023/04/29 12:02:33;;;;;;;6.60;3.28;;;;;;;17.67;nan;100395.91;4922133;29;20032;-67
2023/04/29 12:04:59;;;;;;;4.63;3.22;;;;;;;;;;4925158;29;20407;-66
2023/04/29 12:07:25;;;;;;;6.05;3.20;;;;;;;;;;4923002;29;20093;-68
2023/04/29 12:09:50;;;;;;;4.38;3.20;;;;;;;17.99;nan;100392.06;4921174;29;20942;-68
2023/04/29 12:12:16;;;;;;;5.32;3.40;;;;;;;;;;4920056;29;20040;-69
2023/04/29 12:14:41;;;;;;;7.32;3.88;;;;;;;;;;4920371;29;20050;-68
2023/04/29 12:17:07;;;;;;;8.45;3.80;;;;;;;;;;4924068;29;20478;-68
2023/04/29 12:19:33;;;;;;;6.55;3.65;;;;;;;18.35;nan;100384.66;4921568;29;20031;-66
2023/04/29 12:21:59;;;;;;;9.80;3.55;;;;;;;18.45;nan;100349.91;4925390;29;20053;-71
2023/04/29 12:24:25;;;;;;;5.53;3.40;;;;;;;18.53;nan;100353.06;4920516;29;20047;-67
2023/04/29 12:26:51;;;;;;;7.25;3.53;;;;;;;;;;4921426;29;20099;-71
2023/04/29 12:29:19;;;;;;;8.00;3.90;;;;;;;;;;4920630;29;20059;-73
2023/04/29 12:31:46;;;;;;;7.22;3.67;;;;;;;;;;4924270;29;20050;-73
2023/04/29 12:34:11;;;;;;;9.40;3.75;;;;;;;18.66;nan;100390.56;4939546;28;20723;-72
2023/04/29 12:36:37;;;;;;;6.18;3.83;;;;;;;;;;4926624;29;20161;-69
2023/04/29 12:39:05;;;;;;;10.32;3.60;;;;;;;;;;4924557;29;20044;-74
2023/04/29 12:41:37;;;;;;;8.27;3.10;;;;;;;;;;4923086;29;20031;-73
2023/04/29 12:44:04;;;;;;;5.38;3.22;;;;;;;18.92;nan;100340.50;4924193;29;20088;-72
2023/04/29 12:46:34;;;;;;;6.05;3.15;;;;;;;18.99;nan;100342.84;4923371;29;20090;-72
2023/04/29 12:49:01;;;;;;;4.70;3.10;;;;;;;;;;4927887;29;20031;-72
2023/04/29 12:51:26;;;;;;;7.20;3.10;;;;;;;19.09;nan;100355.28;4921445;29;20522;-73
2023/04/29 12:53:51;;;;;;;3.53;2.75;;;;;;;;;;4924233;29;20053;-71
2023/04/29 12:56:17;;;;;;;9.40;3.30;;;;;;;19.24;nan;100359.66;4922753;29;20124;-72
2023/04/29 12:58:42;;;;;;;4.63;3.28;;;;;;;19.30;nan;100367.31;4922539;29;20087;-71
2023/04/29 13:01:08;;;;;;;7.25;3.35;;;;;;;19.38;nan;100367.78;4919952;29;20034;-70
2023/04/29 13:03:34;;;;;;;6.80;2.97;;;;;;;19.39;nan;100353.34;4927664;29;20118;-69
2023/04/29 13:06:01;;;;;;;4.35;3.10;;;;;;;19.44;nan;100361.28;4921570;29;20055;-73
2023/04/29 13:08:26;;;;;;;4.80;3.20;;;;;;;19.48;nan;100347.09;4922592;29;20141;-70
2023/04/29 13:10:52;;;;;;;3.78;2.53;;;;;;;19.52;nan;100336.63;4926514;29;20040;-70
2023/04/29 13:13:18;;;;;;;5.70;2.92;;;;;;;19.62;nan;100335.72;4923073;29;20042;-71